Time;durP1;ratioP1;P1;durP2;ratioP2;P2;SDS_P1;SDS_P2;PMS_P1;PMS_P2;Temp;Humidity;BMP_temperature;BMP_pressure;BME280_temperature;BME280_humidity;BME280_pressure;Samples;Min_cycle;Max_cycle;Signal;HPM_P1;HPM_P2
2021/03/03 00:00:49;;;;;;;11.47;5.50;;;2.90;1.00;;;;;;5038252;28;20180;-75
2021/03/03 00:03:14;;;;;;;16.63;5.30;;;2.90;1.00;;;;;;5036778;28;20173;-75
2021/03/03 00:05:40;;;;;;;11.03;4.87;;;2.90;1.00;;;;;;5035898;28;20626;-72
2021/03/03 00:08:06;;;;;;;12.60;6.10;;;;;;;;;;5048877;28;20266;-72
2021/03/03 00:10:32;;;;;;;13.25;5.60;;;2.90;1.00;;;;;;5055094;28;20485;-72
2021/03/03 00:12:58;;;;;;;15.50;7.20;;;;;;;;;;5054933;28;20262;-72
2021/03/03 00:15:24;;;;;;;15.82;6.38;;;2.80;1.00;;;;;;5055116;28;20198;-72
2021/03/03 00:17:50;;;;;;;12.87;5.60;;;2.80;1.00;;;;;;5050772;28;20259;-72
2021/03/03 00:20:18;;;;;;;17.20;6.20;;;2.80;1.00;;;;;;5035307;28;20235;-74
2021/03/03 00:22:54;;;;;;;15.38;5.50;;;2.80;1.00;;;;;;5035263;28;20204;-75
2021/03/03 00:25:20;;;;;;;17.70;6.20;;;2.80;1.00;;;;;;5035207;28;20192;-75
2021/03/03 00:27:48;;;;;;;11.40;5.63;;;2.70;1.00;;;;;;5034868;28;20215;-75
2021/03/03 00:30:15;;;;;;;21.98;7.82;;;2.70;1.00;;;;;;5043659;28;20186;-74
2021/03/03 00:32:48;;;;;;;13.75;7.47;;;2.70;1.00;;;;;;5059231;28;20202;-75
2021/03/03 00:35:14;;;;;;;11.23;6.35;;;2.70;1.00;;;;;;5035501;28;20156;-72
2021/03/03 00:37:40;;;;;;;22.93;6.87;;;2.70;1.00;;;;;;5033459;28;20573;-72
2021/03/03 00:40:06;;;;;;;12.03;6.40;;;2.70;1.00;;;;;;5034600;28;20252;-72
2021/03/03 00:42:32;;;;;;;12.43;6.20;;;2.70;1.00;;;;;;5034585;28;20191;-72
2021/03/03 00:45:01;;;;;;;12.80;5.90;;;2.70;1.00;;;;;;5034566;28;20160;-72
2021/03/03 00:47:28;;;;;;;18.10;6.55;;;;;;;;;;5034518;28;20168;-72
2021/03/03 00:49:56;;;;;;;18.85;6.78;;;2.60;1.00;;;;;;5034315;28;20267;-74
2021/03/03 00:52:22;;;;;;;11.27;6.03;;;;;;;;;;5034453;28;20573;-75
2021/03/03 00:54:54;;;;;;;14.50;6.63;;;2.50;1.00;;;;;;5034694;28;20239;-74
2021/03/03 00:57:20;;;;;;;12.90;5.40;;;2.50;1.00;;;;;;5034789;28;20157;-74
2021/03/03 00:59:48;;;;;;;21.60;6.70;;;2.40;1.00;;;;;;5033369;28;20215;-75
2021/03/03 01:02:18;;;;;;;18.33;7.05;;;2.40;1.00;;;;;;5043644;28;20195;-75
2021/03/03 01:04:44;;;;;;;19.05;6.63;;;2.40;1.00;;;;;;5054303;28;20171;-75
2021/03/03 01:07:18;;;;;;;19.40;6.90;;;2.40;1.00;;;;;;5044118;28;20165;-75
2021/03/03 01:09:48;;;;;;;10.75;4.78;;;2.40;1.00;;;;;;5033161;28;20745;-75
2021/03/03 01:12:18;;;;;;;13.52;6.30;;;2.40;1.00;;;;;;5033309;28;20521;-75
2021/03/03 01:14:48;;;;;;;14.63;6.10;;;2.30;1.00;;;;;;5033130;28;20261;-75
2021/03/03 01:17:14;;;;;;;14.02;6.70;;;2.30;1.00;;;;;;5034490;28;20234;-75
2021/03/03 01:19:42;;;;;;;13.37;6.00;;;2.30;1.00;;;;;;5034251;28;20188;-74
2021/03/03 01:22:08;;;;;;;26.88;6.70;;;2.20;1.00;;;;;;5034486;28;20251;-75
2021/03/03 01:24:36;;;;;;;26.93;7.60;;;2.20;1.00;;;;;;5034226;28;20530;-74
2021/03/03 01:27:02;;;;;;;14.98;6.50;;;;;;;;;;5034375;28;20223;-75
2021/03/03 01:29:30;;;;;;;12.15;6.00;;;2.20;1.00;;;;;;5035887;28;20704;-76
2021/03/03 01:31:56;;;;;;;10.70;4.65;;;2.20;1.00;;;;;;5054223;28;20222;-75
2021/03/03 01:34:21;;;;;;;12.90;5.57;;;2.20;1.00;;;;;;5053768;28;20679;-75
2021/03/03 01:36:54;;;;;;;10.50;6.13;;;2.10;1.00;;;;;;5054259;28;20156;-75
2021/03/03 01:39:20;;;;;;;14.57;6.03;;;2.10;1.00;;;;;;5053242;28;20195;-75
2021/03/03 01:41:48;;;;;;;10.07;4.43;;;2.10;1.00;;;;;;5053050;28;20171;-75
2021/03/03 01:44:14;;;;;;;16.27;5.47;;;2.10;1.00;;;;;;5054047;28;20169;-75
2021/03/03 01:46:42;;;;;;;19.27;4.50;;;2.00;1.00;;;;;;5053903;28;20156;-75
2021/03/03 01:49:08;;;;;;;15.57;5.57;;;2.00;1.00;;;;;;5053776;28;20617;-75
2021/03/03 01:51:43;;;;;;;16.43;6.00;;;2.00;1.00;;;;;;5053851;28;20259;-72
2021/03/03 01:54:08;;;;;;;9.48;4.60;;;2.00;1.00;;;;;;5053500;28;20266;-71
2021/03/03 01:56:35;;;;;;;9.30;4.73;;;2.00;1.00;;;;;;5042935;28;20214;-72
2021/03/03 01:59:01;;;;;;;12.27;5.25;;;1.90;1.00;;;;;;5033436;28;20443;-72
2021/03/03 02:01:27;;;;;;;8.52;4.70;;;1.80;1.00;;;;;;5033810;28;20546;-71
2021/03/03 02:03:54;;;;;;;11.90;5.80;;;1.80;1.00;;;;;;5041180;28;20196;-72
2021/03/03 02:06:34;;;;;;;9.07;4.80;;;1.80;1.00;;;;;;5037985;28;20164;-74
2021/03/03 02:09:37;;;;;;;14.32;5.53;;;1.80;1.00;;;;;;5037867;28;20161;-75
2021/03/03 02:12:11;;;;;;;14.13;5.38;;;1.70;1.00;;;;;;5037561;28;20172;-75
2021/03/03 02:14:58;;;;;;;12.45;5.15;;;1.70;1.00;;;;;;5037822;28;20179;-75
2021/03/03 02:17:28;;;;;;;7.10;4.75;;;1.70;1.00;;;;;;5037650;28;20184;-75
2021/03/03 02:20:10;;;;;;;16.17;5.70;;;1.70;1.00;;;;;;5037392;28;20204;-75
2021/03/03 02:23:03;;;;;;;12.05;5.47;;;1.70;1.00;;;;;;5042170;28;20199;-75
2021/03/03 02:25:31;;;;;;;9.82;5.68;;;1.60;1.00;;;;;;5057511;28;20164;-75
2021/03/03 02:28:01;;;;;;;13.57;6.60;;;1.60;1.00;;;;;;5057558;28;20485;-75
2021/03/03 02:30:29;;;;;;;16.45;5.97;;;1.60;1.00;;;;;;5047203;28;20181;-75
2021/03/03 02:33:21;;;;;;;14.52;5.65;;;1.60;1.00;;;;;;5037433;28;20275;-75
2021/03/03 02:35:49;;;;;;;12.30;5.20;;;1.60;1.00;;;;;;5037422;28;20184;-74
2021/03/03 02:38:16;;;;;;;10.52;4.50;;;;;;;;;;5037060;28;20192;-72
2021/03/03 02:40:44;;;;;;;14.57;5.55;;;1.60;1.00;;;;;;5036822;28;20798;-72
2021/03/03 02:43:17;;;;;;;9.88;5.30;;;1.50;1.00;;;;;;5036871;28;20160;-72
2021/03/03 02:45:46;;;;;;;11.55;5.53;;;1.50;1.00;;;;;;5036684;28;20240;-72
2021/03/03 02:48:13;;;;;;;18.25;4.90;;;1.60;1.00;;;;;;5036768;28;20164;-72
2021/03/03 02:50:43;;;;;;;9.13;5.40;;;1.50;1.00;;;;;;5036709;28;20525;-72
2021/03/03 02:53:09;;;;;;;12.15;5.10;;;1.50;1.00;;;;;;5040716;28;20621;-72
2021/03/03 02:55:36;;;;;;;14.87;4.80;;;;;;;;;;5056631;28;20171;-72
2021/03/03 02:58:04;;;;;;;18.85;5.18;;;1.50;1.00;;;;;;5043759;28;20477;-72
2021/03/03 03:00:41;;;;;;;21.88;4.90;;;1.50;1.00;;;;;;5036604;28;20159;-72
2021/03/03 03:03:19;;;;;;;15.27;5.15;;;1.50;1.00;;;;;;5046990;28;20630;-72
2021/03/03 03:05:51;;;;;;;11.55;4.93;;;1.50;1.00;;;;;;5038133;28;20207;-72
2021/03/03 03:08:26;;;;;;;10.07;4.70;;;1.50;1.00;;;;;;5037087;28;20210;-75
2021/03/03 03:10:52;;;;;;;13.75;5.90;;;1.50;1.00;;;;;;5052637;28;20214;-75
2021/03/03 03:13:20;;;;;;;14.05;5.38;;;1.50;1.00;;;;;;5054924;28;20191;-74
2021/03/03 03:15:50;;;;;;;6.50;4.40;;;1.50;1.00;;;;;;5056610;28;20217;-74
2021/03/03 03:18:21;;;;;;;12.18;5.28;;;1.60;1.00;;;;;;5056416;28;20192;-75
2021/03/03 03:20:50;;;;;;;10.65;4.82;;;1.60;1.00;;;;;;5056512;28;20164;-75
2021/03/03 03:23:20;;;;;;;8.75;4.65;;;1.60;1.00;;;;;;5056565;28;20171;-72
2021/03/03 03:25:46;;;;;;;10.90;5.32;;;1.60;1.00;;;;;;5056156;28;20156;-72
2021/03/03 03:28:13;;;;;;;12.88;5.65;;;1.50;1.00;;;;;;5036051;28;20651;-72
2021/03/03 03:30:40;;;;;;;13.65;6.00;;;1.50;1.00;;;;;;5035917;28;20677;-72
2021/03/03 03:33:06;;;;;;;10.30;4.85;;;1.50;1.00;;;;;;5040530;28;20198;-72
2021/03/03 03:35:32;;;;;;;18.50;6.18;;;1.50;1.00;;;;;;5055789;28;20198;-72
2021/03/03 03:38:00;;;;;;;14.47;6.20;;;1.50;1.00;;;;;;5056263;28;20296;-74
2021/03/03 03:40:30;;;;;;;18.70;6.50;;;1.40;1.00;;;;;;5056234;28;20421;-76
2021/03/03 03:42:57;;;;;;;14.52;5.65;;;1.40;1.00;;;;;;5036956;28;20510;-75
2021/03/03 03:45:23;;;;;;;8.15;4.65;;;1.50;1.00;;;;;;5035387;28;20503;-76
2021/03/03 03:47:50;;;;;;;13.98;5.72;;;1.50;1.00;;;;;;5035979;28;20558;-75
2021/03/03 03:50:16;;;;;;;8.50;4.97;;;1.50;1.00;;;;;;5035883;28;20145;-75
2021/03/03 03:52:43;;;;;;;7.93;4.60;;;1.50;1.00;;;;;;5036117;28;20218;-72
2021/03/03 03:55:09;;;;;;;12.30;4.75;;;1.50;1.00;;;;;;5035557;28;20200;-72
2021/03/03 03:58:05;;;;;;;10.25;5.10;;;1.50;1.00;;;;;;5035654;28;20188;-72
2021/03/03 04:00:32;;;;;;;8.93;5.18;;;1.50;1.00;;;;;;5013346;28;20185;-72
2021/03/03 04:02:58;;;;;;;10.13;4.97;;;1.50;1.00;;;;;;5013440;28;20385;-72
2021/03/03 04:05:25;;;;;;;13.38;5.93;;;1.60;1.00;;;;;;5024901;28;20550;-72
2021/03/03 04:07:51;;;;;;;11.02;5.10;;;1.50;1.00;;;;;;4994281;28;20574;-72
2021/03/03 04:10:23;;;;;;;18.87;4.87;;;1.60;1.00;;;;;;4978085;28;20177;-72
2021/03/03 04:12:48;;;;;;;14.05;6.80;;;1.60;1.00;;;;;;5013088;28;20590;-72
2021/03/03 04:15:15;;;;;;;10.70;6.37;;;1.60;1.00;;;;;;5013187;28;20177;-72
2021/03/03 04:17:49;;;;;;;11.10;5.93;;;1.60;1.00;;;;;;5012745;28;20181;-72
2021/03/03 04:20:16;;;;;;;12.13;4.53;;;1.60;1.00;;;;;;5012996;28;20219;-72
2021/03/03 04:22:42;;;;;;;12.07;6.25;;;1.60;1.00;;;;;;5013415;28;20169;-72
2021/03/03 04:25:11;;;;;;;13.98;6.22;;;1.60;1.00;;;;;;5012095;28;20185;-72
2021/03/03 04:27:37;;;;;;;14.50;5.15;;;1.60;1.00;;;;;;5012931;28;20165;-72
2021/03/03 04:30:13;;;;;;;13.80;6.73;;;1.70;1.00;;;;;;5019466;28;20251;-72
2021/03/03 04:32:39;;;;;;;21.70;6.10;;;1.60;1.00;;;;;;5012886;28;20489;-72
2021/03/03 04:35:06;;;;;;;10.67;5.67;;;1.60;1.00;;;;;;5012669;28;20576;-72
2021/03/03 04:37:33;;;;;;;11.23;6.05;;;1.70;1.00;;;;;;5045235;28;20266;-72
2021/03/03 04:39:59;;;;;;;10.25;5.18;;;1.70;1.00;;;;;;5054670;28;20203;-72
2021/03/03 04:42:25;;;;;;;7.82;5.10;;;1.70;1.00;;;;;;5054532;28;20163;-72
2021/03/03 04:44:51;;;;;;;13.20;5.67;;;;;;;;;;5054481;28;20180;-72
2021/03/03 04:47:17;;;;;;;11.25;5.70;;;;;;;;;;5053446;28;20402;-72
2021/03/03 04:49:43;;;;;;;8.18;4.20;;;1.80;1.00;;;;;;5054305;28;20167;-72
2021/03/03 04:52:08;;;;;;;9.40;4.73;;;1.80;1.00;;;;;;5054463;28;20176;-72
2021/03/03 04:54:34;;;;;;;6.73;4.10;;;1.80;1.00;;;;;;5054334;28;20417;-72
2021/03/03 04:57:04;;;;;;;10.00;4.93;;;1.80;1.00;;;;;;5054589;28;20159;-72
2021/03/03 04:59:30;;;;;;;14.85;5.40;;;1.70;1.00;;;;;;5052895;28;20474;-72
2021/03/03 05:01:56;;;;;;;15.33;5.50;;;1.70;1.00;;;;;;5054392;28;20208;-72
2021/03/03 05:04:22;;;;;;;12.90;6.17;;;;;;;;;;5054033;28;20465;-72
2021/03/03 05:06:48;;;;;;;11.07;5.18;;;1.80;1.00;;;;;;5035657;28;20834;-72
2021/03/03 05:09:14;;;;;;;17.75;5.95;;;1.80;1.00;;;;;;5038395;28;20655;-75
2021/03/03 05:11:48;;;;;;;12.52;4.85;;;1.70;1.00;;;;;;5054328;28;20242;-75
2021/03/03 05:14:24;;;;;;;8.65;5.30;;;1.80;1.00;;;;;;5036078;28;20251;-75
2021/03/03 05:16:50;;;;;;;13.50;6.07;;;1.80;1.00;;;;;;5034551;28;20192;-75
2021/03/03 05:19:16;;;;;;;10.53;5.17;;;1.80;1.00;;;;;;5041404;28;20258;-75
2021/03/03 05:21:43;;;;;;;9.73;5.57;;;;;;;;;;5054345;28;20217;-75
2021/03/03 05:24:12;;;;;;;7.80;4.97;;;1.70;1.00;;;;;;5054598;28;20651;-75
2021/03/03 05:26:42;;;;;;;9.38;5.70;;;1.70;1.00;;;;;;5054166;28;20168;-75
2021/03/03 05:29:08;;;;;;;12.93;5.30;;;1.70;1.00;;;;;;5034364;28;20222;-75
2021/03/03 05:31:34;;;;;;;12.60;5.90;;;1.60;1.00;;;;;;5034225;28;20192;-75
2021/03/03 05:34:18;;;;;;;10.30;5.95;;;1.60;1.00;;;;;;5034133;28;20161;-75
2021/03/03 05:36:44;;;;;;;14.60;5.72;;;1.60;1.00;;;;;;5033938;28;20503;-75
2021/03/03 05:39:10;;;;;;;12.67;4.70;;;1.60;1.00;;;;;;5034466;28;20192;-75
2021/03/03 05:41:36;;;;;;;10.23;4.70;;;;;;;;;;5033578;28;20160;-75
2021/03/03 05:44:13;;;;;;;11.52;5.38;;;1.70;1.00;;;;;;5032472;28;20864;-75
2021/03/03 05:46:43;;;;;;;14.00;6.35;;;1.60;1.00;;;;;;5042363;28;20175;-75
2021/03/03 05:49:14;;;;;;;15.02;6.40;;;1.60;1.00;;;;;;5047829;28;20187;-75
2021/03/03 05:51:49;;;;;;;15.35;5.50;;;1.60;1.00;;;;;;5034172;28;20172;-75
2021/03/03 05:54:19;;;;;;;14.20;6.13;;;1.50;1.00;;;;;;5034172;28;20167;-77
2021/03/03 06:03:37;;;;;;;14.50;4.32;;;1.40;1.00;;;;;;5048665;28;20191;-81
2021/03/03 06:06:25;;;;;;;10.45;4.75;;;1.40;1.00;;;;;;5047622;28;20197;-81
2021/03/03 06:09:00;;;;;;;8.95;4.78;;;1.40;1.00;;;;;;5035253;28;20181;-81
2021/03/03 06:12:06;;;;;;;10.68;4.88;;;1.40;1.00;;;;;;5033593;28;20240;-81
2021/03/03 06:14:39;;;;;;;26.25;8.52;;;1.50;1.00;;;;;;5033765;28;20176;-76
2021/03/03 06:17:05;;;;;;;15.27;5.53;;;1.50;1.00;;;;;;5047332;28;20211;-75
2021/03/03 06:19:31;;;;;;;11.98;5.75;;;1.60;1.00;;;;;;5052384;28;20211;-76
2021/03/03 06:22:27;;;;;;;7.72;4.63;;;1.50;1.00;;;;;;5053812;28;20218;-75
2021/03/03 06:25:26;;;;;;;7.88;4.95;;;1.60;1.00;;;;;;5051545;28;20152;-72
2021/03/03 06:27:53;;;;;;;20.17;6.72;;;;;;;;;;5009590;28;20216;-72
2021/03/03 06:30:20;;;;;;;13.18;5.28;;;1.50;1.00;;;;;;5026808;28;20180;-72
2021/03/03 06:32:56;;;;;;;10.85;4.95;;;1.50;1.00;;;;;;5027585;28;20195;-72
2021/03/03 06:35:47;;;;;;;12.07;5.53;;;1.60;1.00;;;;;;5017820;28;20392;-72
2021/03/03 06:38:15;;;;;;;10.05;5.03;;;1.60;1.00;;;;;;5010500;28;20213;-74
2021/03/03 06:40:55;;;;;;;8.13;5.05;;;1.70;1.00;;;;;;5010283;28;20170;-76
2021/03/03 06:43:26;;;;;;;11.20;5.80;;;1.70;1.00;;;;;;5013715;28;20300;-75
2021/03/03 06:45:53;;;;;;;20.10;5.88;;;1.70;1.00;;;;;;5010568;28;20180;-75
2021/03/03 06:48:41;;;;;;;8.95;4.20;;;1.80;1.00;;;;;;5030260;28;20184;-75
2021/03/03 06:51:32;;;;;;;9.63;5.57;;;1.90;1.00;;;;;;5032914;28;20533;-75
2021/03/03 06:54:22;;;;;;;8.20;4.65;;;1.90;1.00;;;;;;5033988;28;20222;-75
2021/03/03 06:56:49;;;;;;;27.73;6.07;;;1.90;1.00;;;;;;5016529;28;20181;-75
2021/03/03 06:59:31;;;;;;;9.30;5.55;;;2.00;1.00;;;;;;5013727;28;20188;-75
2021/03/03 07:01:59;;;;;;;6.50;4.63;;;2.10;1.00;;;;;;5013521;28;20172;-76
2021/03/03 07:04:32;;;;;;;13.70;6.00;;;2.20;1.00;;;;;;5030250;28;20661;-75
2021/03/03 07:07:22;;;;;;;23.75;6.22;;;2.30;1.00;;;;;;5036671;28;20276;-75
2021/03/03 07:09:59;;;;;;;17.55;6.47;;;2.40;1.00;;;;;;5051574;28;20211;-72
2021/03/03 07:12:32;;;;;;;14.70;6.55;;;2.40;1.00;;;;;;5055424;28;20168;-72
2021/03/03 07:15:09;;;;;;;16.35;5.20;;;2.50;1.00;;;;;;5047859;28;20185;-72
2021/03/03 07:17:39;;;;;;;9.82;5.57;;;2.60;1.00;;;;;;5035403;28;20251;-72
2021/03/03 07:20:11;;;;;;;12.50;5.75;;;2.70;1.00;;;;;;5042575;28;20195;-72
2021/03/03 07:22:38;;;;;;;25.48;7.63;;;2.80;1.00;;;;;;5054776;28;20182;-72
2021/03/03 07:25:15;;;;;;;19.00;7.05;;;2.80;1.00;;;;;;5050654;28;20171;-75
2021/03/03 07:27:43;;;;;;;13.43;4.80;;;2.90;1.00;;;;;;5035513;28;20556;-75
2021/03/03 07:30:13;;;;;;;10.57;5.63;;;3.00;1.00;;;;;;5035347;28;20618;-75
2021/03/03 07:32:39;;;;;;;13.43;6.85;;;;;;;;;;5045808;28;20727;-75
2021/03/03 07:35:07;;;;;;;18.70;7.65;;;3.20;1.00;;;;;;5055158;28;20632;-75
2021/03/03 07:37:37;;;;;;;20.55;8.75;;;3.30;1.00;;;;;;5054914;28;20171;-75
2021/03/03 07:40:14;;;;;;;14.43;7.40;;;3.40;1.00;;;;;;5053989;28;20286;-72
2021/03/03 07:42:42;;;;;;;16.13;7.90;;;3.50;1.00;;;;;;5041867;28;20191;-73
2021/03/03 07:45:09;;;;;;;18.67;8.52;;;3.60;1.00;;;;;;5034706;28;20156;-72
2021/03/03 07:47:37;;;;;;;14.45;7.03;;;3.70;1.00;;;;;;5033508;28;20191;-72
2021/03/03 07:50:14;;;;;;;19.00;7.90;;;3.80;1.00;;;;;;5034800;28;20161;-72
2021/03/03 07:52:44;;;;;;;27.13;9.80;;;3.90;1.00;;;;;;5034635;28;20184;-72
2021/03/03 07:55:10;;;;;;;18.13;7.75;;;4.10;1.00;;;;;;5035106;28;20161;-72
2021/03/03 07:57:39;;;;;;;18.33;7.25;;;4.20;1.00;;;;;;5036877;28;20172;-72
2021/03/03 08:00:11;;;;;;;18.42;7.85;;;4.30;1.00;;;;;;5034409;28;20190;-72
2021/03/03 08:02:49;;;;;;;24.27;8.50;;;4.40;1.00;;;;;;5034544;28;20160;-72
2021/03/03 08:05:36;;;;;;;26.85;8.05;;;4.50;1.00;;;;;;5037222;28;20172;-72
2021/03/03 08:08:33;;;;;;;16.60;8.25;;;;;;;;;;5037361;28;20191;-72
2021/03/03 08:10:59;;;;;;;17.10;8.52;;;4.80;1.00;;;;;;5053409;28;20198;-75
2021/03/03 08:13:44;;;;;;;23.03;8.83;;;4.90;1.00;;;;;;5055203;28;20203;-75
2021/03/03 08:16:18;;;;;;;18.33;8.40;;;5.10;1.00;;;;;;5052404;28;20821;-75
2021/03/03 08:18:50;;;;;;;23.40;9.27;;;5.20;1.00;;;;;;5054877;28;20195;-76
2021/03/03 08:21:28;;;;;;;29.08;9.27;;;5.30;1.00;;;;;;5055244;28;20156;-75
2021/03/03 08:23:57;;;;;;;21.27;10.63;;;5.50;1.00;;;;;;5055324;28;20188;-74
2021/03/03 08:26:22;;;;;;;22.50;9.65;;;5.50;1.00;;;;;;5055196;28;20659;-75
2021/03/03 08:28:53;;;;;;;22.27;10.43;;;5.60;1.00;;;;;;5053586;28;20184;-75
2021/03/03 08:31:24;;;;;;;19.73;9.93;;;5.80;1.00;;;;;;5054852;28;20648;-75
2021/03/03 08:33:51;;;;;;;20.20;9.23;;;;;;;;;;5047325;28;20422;-75
2021/03/03 08:36:20;;;;;;;21.17;9.50;;;;;;;;;;5052551;28;21111;-75
2021/03/03 08:39:06;;;;;;;19.20;8.90;;;6.00;1.00;;;;;;5051946;28;20879;-75
2021/03/03 08:41:33;;;;;;;26.90;10.17;;;6.20;1.00;;;;;;5011693;28;20937;-72
2021/03/03 08:44:10;;;;;;;25.10;9.70;;;6.30;1.00;;;;;;5006770;28;20438;-72
2021/03/03 08:46:41;;;;;;;24.23;10.63;;;6.40;1.00;;;;;;5030939;28;20422;-72
2021/03/03 08:49:07;;;;;;;20.57;10.10;;;;;;;;;;5030548;28;20629;-72
2021/03/03 08:51:44;;;;;;;23.60;9.73;;;6.60;1.00;;;;;;5031267;28;20950;-72
2021/03/03 08:54:14;;;;;;;23.83;9.90;;;6.70;1.00;;;;;;5019292;28;20493;-73
2021/03/03 08:56:44;;;;;;;18.23;10.50;;;6.90;1.00;;;;;;5011506;28;20404;-72
2021/03/03 08:59:10;;;;;;;18.80;9.03;;;;;;;;;;4997064;28;20843;-72
2021/03/03 09:01:54;;;;;;;21.00;9.07;;;7.00;1.00;;;;;;5026673;28;20598;-73
2021/03/03 09:04:31;;;;;;;24.00;10.03;;;7.10;1.00;;;;;;5026728;28;20407;-72
2021/03/03 09:07:00;;;;;;;27.37;10.13;;;7.20;1.00;;;;;;5011339;28;20388;-72
2021/03/03 09:09:27;;;;;;;21.53;10.17;;;7.30;1.00;;;;;;5015784;28;20436;-74
2021/03/03 09:12:08;;;;;;;21.20;10.77;;;7.50;1.00;;;;;;5017732;28;20557;-76
2021/03/03 09:14:37;;;;;;;21.73;9.50;;;7.60;1.00;;;;;;4994136;28;20454;-75
2021/03/03 09:17:08;;;;;;;21.53;9.60;;;7.70;1.00;;;;;;5011383;28;20408;-75
2021/03/03 09:19:35;;;;;;;20.87;10.40;;;7.80;1.00;;;;;;5029966;28;20521;-75
2021/03/03 09:22:26;;;;;;;22.03;10.13;;;8.00;1.00;;;;;;5032957;28;20402;-75
2021/03/03 09:25:11;;;;;;;22.47;9.90;;;8.10;1.00;;;;;;5052379;28;20428;-75
2021/03/03 09:27:38;;;;;;;24.03;10.40;;;;;;;;;;5053449;28;20390;-75
2021/03/03 09:30:04;;;;;;;19.83;9.63;;;8.10;1.00;;;;;;5052958;28;20451;-76
2021/03/03 09:32:30;;;;;;;22.17;10.97;;;8.30;1.00;;;;;;5052505;28;20487;-77
2021/03/03 09:35:05;;;;;;;22.23;9.93;;;8.30;1.00;;;;;;5037027;28;20474;-75
2021/03/03 09:37:42;;;;;;;20.13;10.50;;;8.30;1.00;;;;;;5032949;28;20161;-75
2021/03/03 09:40:10;;;;;;;22.60;10.80;;;8.40;1.00;;;;;;5036259;28;20866;-73
2021/03/03 09:42:43;;;;;;;17.57;9.73;;;8.50;1.00;;;;;;5045522;28;20410;-73
2021/03/03 09:45:17;;;;;;;29.70;11.20;;;8.60;1.00;;;;;;5052317;28;20859;-74
2021/03/03 09:47:43;;;;;;;23.00;10.50;;;;;;;;;;5032883;28;20759;-73
2021/03/03 09:50:10;;;;;;;25.50;11.23;;;8.80;1.00;;;;;;5032742;28;20453;-73
2021/03/03 09:52:44;;;;;;;18.87;10.27;;;9.00;1.00;;;;;;5032671;28;20509;-73
2021/03/03 09:55:13;;;;;;;28.13;10.30;;;9.20;1.00;;;;;;5033053;28;20391;-74
2021/03/03 09:57:39;;;;;;;20.50;9.93;;;9.40;1.00;;;;;;5034291;28;20906;-74
2021/03/03 10:00:09;;;;;;;23.00;10.37;;;9.60;1.00;;;;;;5052422;28;20442;-74
2021/03/03 10:02:44;;;;;;;30.63;10.73;;;9.70;1.00;;;;;;5045306;28;20480;-74
2021/03/03 10:05:16;;;;;;;21.70;11.07;;;9.80;1.00;;;;;;5034225;28;20750;-75
2021/03/03 10:07:53;;;;;;;23.43;10.50;;;9.90;1.00;;;;;;5038253;28;20503;-75
2021/03/03 10:10:21;;;;;;;27.00;11.27;;;10.00;1.00;;;;;;5044291;28;20941;-73
2021/03/03 10:12:47;;;;;;;22.83;10.27;;;;;;;;;;5032992;28;20435;-74
2021/03/03 10:15:14;;;;;;;23.10;10.83;;;10.20;1.00;;;;;;5040017;28;20434;-73
2021/03/03 10:17:53;;;;;;;25.50;11.20;;;10.20;1.00;;;;;;5051156;28;20411;-74
2021/03/03 10:20:51;;;;;;;22.80;10.50;;;10.30;1.00;;;;;;5051506;28;20407;-71
2021/03/03 10:23:19;;;;;;;23.50;11.07;;;10.30;1.00;;;;;;5053796;28;20890;-72
2021/03/03 10:25:48;;;;;;;22.40;10.57;;;10.30;1.00;;;;;;5056670;28;20387;-72
2021/03/03 10:28:17;;;;;;;25.63;10.90;;;10.30;1.00;;;;;;5043888;28;20433;-72
2021/03/03 10:30:51;;;;;;;29.77;11.50;;;10.30;1.00;;;;;;5038116;28;20549;-72
2021/03/03 10:33:40;;;;;;;23.40;11.17;;;10.30;1.00;;;;;;5055719;28;20460;-72
2021/03/03 10:36:24;;;;;;;29.50;11.63;;;10.40;1.00;;;;;;5039723;28;20450;-72
2021/03/03 10:38:54;;;;;;;25.20;11.30;;;10.30;1.00;;;;;;5035986;28;20771;-72
2021/03/03 10:41:33;;;;;;;33.80;12.60;;;10.40;1.00;;;;;;5039900;28;20516;-75
2021/03/03 10:44:05;;;;;;;22.73;11.17;;;10.50;1.00;;;;;;5046919;28;20425;-75
2021/03/03 10:46:32;;;;;;;27.13;12.67;;;10.50;1.00;;;;;;5055820;28;20444;-75
2021/03/03 10:49:16;;;;;;;28.70;12.07;;;10.50;1.00;;;;;;5050503;28;20502;-75
2021/03/03 10:51:42;;;;;;;31.00;13.43;;;10.60;1.00;;;;;;5034462;28;21053;-75
2021/03/03 10:54:08;;;;;;;28.23;13.20;;;10.60;1.00;;;;;;5035847;28;20415;-75
2021/03/03 10:56:37;;;;;;;28.57;12.80;;;10.60;1.00;;;;;;5036157;28;20399;-75
2021/03/03 10:59:30;;;;;;;24.70;12.17;;;10.60;1.00;;;;;;5035960;28;20566;-75
2021/03/03 11:01:58;;;;;;;24.70;12.17;;;;;;;;;;5035983;28;20395;-75
2021/03/03 11:04:43;;;;;;;30.13;13.47;;;10.80;1.00;;;;;;5035585;28;20407;-75
2021/03/03 11:07:11;;;;;;;27.43;13.37;;;11.00;1.00;;;;;;5034462;28;20838;-75
2021/03/03 11:09:37;;;;;;;27.30;12.50;;;;;;;;;;5034208;28;20922;-75
2021/03/03 11:12:04;;;;;;;29.60;11.87;;;11.20;1.00;;;;;;5036875;28;20418;-72
2021/03/03 11:14:30;;;;;;;28.93;12.80;;;;;;;;;;5035579;28;20438;-72
2021/03/03 11:17:01;;;;;;;30.70;13.97;;;11.40;1.00;;;;;;5035423;28;20419;-72
2021/03/03 11:19:28;;;;;;;36.20;13.77;;;11.60;1.00;;;;;;5036793;28;20732;-72
2021/03/03 11:21:54;;;;;;;25.67;12.30;;;;;;;;;;5053959;28;20902;-72
2021/03/03 11:24:22;;;;;;;31.93;14.20;;;11.70;1.00;;;;;;5055160;28;20398;-72
2021/03/03 11:26:48;;;;;;;39.83;13.30;;;11.70;1.00;;;;;;5054578;28;20438;-75
2021/03/03 11:29:14;;;;;;;30.70;13.13;;;11.90;1.00;;;;;;5055160;28;20846;-75
2021/03/03 11:31:41;;;;;;;32.83;12.70;;;12.00;1.00;;;;;;5054909;28;20512;-75
2021/03/03 11:34:08;;;;;;;28.80;13.60;;;;;;;;;;5047654;28;20907;-75
2021/03/03 11:36:34;;;;;;;25.87;11.97;;;;;;;;;;5035051;28;20815;-75
2021/03/03 11:39:00;;;;;;;28.20;14.23;;;;;;;;;;5033493;28;20574;-75
2021/03/03 11:41:30;;;;;;;30.23;12.27;;;12.30;1.00;;;;;;5035089;28;20398;-76
2021/03/03 11:43:56;;;;;;;26.23;12.30;;;;;;;;;;5035063;28;20403;-75
2021/03/03 11:46:22;;;;;;;25.53;12.57;;;;;;;;;;5035134;28;20404;-75
2021/03/03 11:48:49;;;;;;;26.60;12.90;;;;;;;;;;5034621;28;20787;-75
2021/03/03 11:51:15;;;;;;;26.67;12.73;;;12.60;1.00;;;;;;5033426;28;20407;-75
2021/03/03 11:53:41;;;;;;;26.47;12.53;;;12.70;1.00;;;;;;5034882;28;20406;-75
2021/03/03 11:56:07;;;;;;;23.90;12.03;;;12.80;1.00;;;;;;5035252;28;20469;-72
2021/03/03 11:58:33;;;;;;;28.10;13.20;;;;;;;;;;5035437;28;20959;-72
2021/03/03 12:00:58;;;;;;;26.53;12.23;;;13.00;1.00;;;;;;5045387;28;20936;-72
2021/03/03 12:03:24;;;;;;;27.97;12.47;;;;;;;;;;5034501;28;20366;-72
2021/03/03 12:05:50;;;;;;;26.23;12.17;;;13.20;1.00;;;;;;5047495;28;20167;-72
2021/03/03 12:08:16;;;;;;;21.50;11.50;;;;;;;;;;5054519;28;20406;-72
2021/03/03 12:10:42;;;;;;;27.43;13.20;;;;;;;;;;5049410;28;20449;-72
2021/03/03 12:13:08;;;;;;;38.30;13.03;;;;;;;;;;5042558;28;20899;-75
2021/03/03 12:15:34;;;;;;;30.73;14.13;;;13.60;1.00;;;;;;5053388;28;20441;-75
2021/03/03 12:18:00;;;;;;;25.67;12.27;;;;;;;;;;5048828;28;20767;-75
2021/03/03 12:20:28;;;;;;;27.70;12.10;;;;;;;;;;5038537;28;20567;-75
2021/03/03 12:22:55;;;;;;;31.37;12.93;;;13.80;1.00;;;;;;5036574;28;20712;-75
2021/03/03 12:25:21;;;;;;;28.80;12.23;;;;;;;;;;5053921;28;20387;-75
2021/03/03 12:27:47;;;;;;;27.97;13.80;;;;;;;;;;5040454;28;20410;-72
2021/03/03 12:30:13;;;;;;;26.87;11.73;;;14.00;1.00;;;;;;5051735;28;20418;-72
2021/03/03 12:32:39;;;;;;;38.30;13.20;;;14.10;1.00;;;;;;5052763;28;20436;-72
2021/03/03 12:35:06;;;;;;;29.70;12.30;;;14.20;1.00;;;;;;5042889;28;21172;-72
2021/03/03 12:37:31;;;;;;;22.97;11.90;;;14.30;1.00;;;;;;5033841;28;20168;-72
2021/03/03 12:39:57;;;;;;;30.27;12.47;;;;;;;;;;5033319;28;20805;-72
2021/03/03 12:42:23;;;;;;;25.80;10.87;;;14.50;1.00;;;;;;5037885;28;20216;-76
2021/03/03 12:44:49;;;;;;;31.53;12.47;;;;;;;;;;5052804;28;20399;-75
2021/03/03 12:47:15;;;;;;;25.53;11.87;;;14.60;1.00;;;;;;5036160;28;20177;-75
2021/03/03 12:49:41;;;;;;;30.07;13.30;;;14.70;1.00;;;;;;5036264;28;20414;-75
2021/03/03 12:52:06;;;;;;;25.80;11.43;;;14.80;1.00;;;;;;5053017;28;20480;-75
2021/03/03 12:54:32;;;;;;;23.60;11.90;;;14.90;1.00;;;;;;5053688;28;20163;-75
2021/03/03 12:56:58;;;;;;;30.40;11.47;;;;;;;;;;5050730;28;20651;-75
2021/03/03 12:59:23;;;;;;;28.13;11.93;;;15.00;1.00;;;;;;5040712;28;20219;-75
2021/03/03 13:01:49;;;;;;;21.97;11.57;;;15.10;1.00;;;;;;5050936;28;20416;-75
2021/03/03 13:04:16;;;;;;;30.43;12.83;;;;;;;;;;5052467;28;20242;-75
2021/03/03 13:06:42;;;;;;;29.57;13.13;;;;;;;;;;5052009;28;20519;-75
2021/03/03 13:09:08;;;;;;;29.80;13.03;;;;;;;;;;5033269;28;20896;-75
2021/03/03 13:11:34;;;;;;;25.10;12.63;;;15.20;1.00;;;;;;5040726;28;20390;-75
2021/03/03 13:13:59;;;;;;;26.80;13.10;;;15.30;1.00;;;;;;5037732;28;20436;-75
2021/03/03 13:16:25;;;;;;;28.73;11.90;;;15.40;1.00;;;;;;5034325;28;20239;-75
2021/03/03 13:18:51;;;;;;;35.93;12.10;;;;;;;;;;5050949;28;20258;-75
2021/03/03 13:21:17;;;;;;;24.97;11.70;;;15.60;1.00;;;;;;5040820;28;20182;-74
2021/03/03 13:23:43;;;;;;;33.50;12.07;;;15.60;1.00;;;;;;5043557;28;20382;-75
2021/03/03 13:26:09;;;;;;;29.50;11.50;;;15.40;1.00;;;;;;5046060;28;20406;-76
2021/03/03 13:28:35;;;;;;;22.47;10.60;;;;;;;;;;5045489;28;20207;-72